sensor_id;sensor_type;location;lat;lon;timestamp;P1;durP1;ratioP1;P2;durP2;ratioP2
16127;SDS011;8168;49.036;7.690;2023-09-30T00:00:13;3.23;;;2.00;;
16127;SDS011;8168;49.036;7.690;2023-09-30T00:02:44;3.60;;;2.03;;
16127;SDS011;8168;49.036;7.690;2023-09-30T00:05:14;4.53;;;1.97;;
16127;SDS011;8168;49.036;7.690;2023-09-30T00:07:45;3.67;;;2.33;;
16127;SDS011;8168;49.036;7.690;2023-09-30T00:10:16;4.00;;;2.13;;
16127;SDS011;8168;49.036;7.690;2023-09-30T00:12:47;3.47;;;2.00;;
16127;SDS011;8168;49.036;7.690;2023-09-30T00:15:17;4.23;;;2.73;;
16127;SDS011;8168;49.036;7.690;2023-09-30T00:17:48;2.77;;;2.33;;
16127;SDS011;8168;49.036;7.690;2023-09-30T00:20:19;5.03;;;2.57;;
16127;SDS011;8168;49.036;7.690;2023-09-30T00:22:49;4.80;;;1.80;;
16127;SDS011;8168;49.036;7.690;2023-09-30T00:25:20;3.63;;;2.47;;
16127;SDS011;8168;49.036;7.690;2023-09-30T00:27:51;5.07;;;2.43;;
16127;SDS011;8168;49.036;7.690;2023-09-30T00:30:21;4.70;;;2.67;;
16127;SDS011;8168;49.036;7.690;2023-09-30T00:32:52;3.20;;;2.20;;
16127;SDS011;8168;49.036;7.690;2023-09-30T00:35:22;5.03;;;2.40;;
16127;SDS011;8168;49.036;7.690;2023-09-30T00:37:53;3.00;;;1.80;;
16127;SDS011;8168;49.036;7.690;2023-09-30T00:40:24;5.07;;;2.33;;
16127;SDS011;8168;49.036;7.690;2023-09-30T00:42:55;5.03;;;2.43;;
16127;SDS011;8168;49.036;7.690;2023-09-30T00:45:25;5.07;;;2.50;;
16127;SDS011;8168;49.036;7.690;2023-09-30T00:47:56;3.47;;;2.50;;
16127;SDS011;8168;49.036;7.690;2023-09-30T00:50:27;2.40;;;2.20;;
16127;SDS011;8168;49.036;7.690;2023-09-30T00:52:58;2.83;;;2.13;;
16127;SDS011;8168;49.036;7.690;2023-09-30T00:55:29;6.20;;;2.47;;
16127;SDS011;8168;49.036;7.690;2023-09-30T00:58:00;4.50;;;2.13;;
16127;SDS011;8168;49.036;7.690;2023-09-30T01:00:31;3.87;;;2.50;;
16127;SDS011;8168;49.036;7.690;2023-09-30T01:03:02;4.10;;;2.33;;
16127;SDS011;8168;49.036;7.690;2023-09-30T01:05:34;3.77;;;2.60;;
16127;SDS011;8168;49.036;7.690;2023-09-30T01:08:04;4.23;;;3.13;;
16127;SDS011;8168;49.036;7.690;2023-09-30T01:10:35;2.90;;;2.40;;
16127;SDS011;8168;49.036;7.690;2023-09-30T01:13:06;4.97;;;2.33;;
16127;SDS011;8168;49.036;7.690;2023-09-30T01:15:36;3.57;;;3.23;;
16127;SDS011;8168;49.036;7.690;2023-09-30T01:18:07;4.73;;;2.70;;
16127;SDS011;8168;49.036;7.690;2023-09-30T01:20:37;5.83;;;2.27;;
16127;SDS011;8168;49.036;7.690;2023-09-30T01:23:08;3.83;;;2.60;;
16127;SDS011;8168;49.036;7.690;2023-09-30T01:25:42;5.57;;;2.70;;
16127;SDS011;8168;49.036;7.690;2023-09-30T01:28:14;2.87;;;2.13;;
16127;SDS011;8168;49.036;7.690;2023-09-30T01:30:46;3.80;;;2.10;;
16127;SDS011;8168;49.036;7.690;2023-09-30T01:33:17;3.63;;;2.47;;
16127;SDS011;8168;49.036;7.690;2023-09-30T01:35:48;3.53;;;2.10;;
16127;SDS011;8168;49.036;7.690;2023-09-30T01:38:19;3.93;;;2.00;;
16127;SDS011;8168;49.036;7.690;2023-09-30T01:40:50;4.13;;;2.47;;
16127;SDS011;8168;49.036;7.690;2023-09-30T01:43:21;3.70;;;2.50;;
16127;SDS011;8168;49.036;7.690;2023-09-30T01:45:51;2.13;;;1.90;;
16127;SDS011;8168;49.036;7.690;2023-09-30T01:48:22;3.80;;;2.63;;
16127;SDS011;8168;49.036;7.690;2023-09-30T01:50:52;5.73;;;2.43;;
16127;SDS011;8168;49.036;7.690;2023-09-30T01:53:23;4.50;;;2.60;;
16127;SDS011;8168;49.036;7.690;2023-09-30T01:55:54;4.90;;;2.40;;
16127;SDS011;8168;49.036;7.690;2023-09-30T01:58:24;3.70;;;2.73;;
16127;SDS011;8168;49.036;7.690;2023-09-30T02:01:01;4.90;;;2.87;;
16127;SDS011;8168;49.036;7.690;2023-09-30T02:03:35;3.73;;;2.40;;
16127;SDS011;8168;49.036;7.690;2023-09-30T02:06:06;4.93;;;2.30;;
16127;SDS011;8168;49.036;7.690;2023-09-30T02:08:36;4.87;;;2.63;;
16127;SDS011;8168;49.036;7.690;2023-09-30T02:11:07;3.23;;;2.93;;
16127;SDS011;8168;49.036;7.690;2023-09-30T02:13:38;4.33;;;2.67;;
16127;SDS011;8168;49.036;7.690;2023-09-30T02:16:12;4.20;;;2.17;;
16127;SDS011;8168;49.036;7.690;2023-09-30T02:18:43;3.30;;;2.37;;
16127;SDS011;8168;49.036;7.690;2023-09-30T02:21:20;3.60;;;2.47;;
16127;SDS011;8168;49.036;7.690;2023-09-30T02:23:54;3.00;;;2.60;;
16127;SDS011;8168;49.036;7.690;2023-09-30T02:26:25;3.73;;;2.20;;
16127;SDS011;8168;49.036;7.690;2023-09-30T02:28:57;5.13;;;2.70;;
16127;SDS011;8168;49.036;7.690;2023-09-30T02:31:28;5.67;;;2.30;;
16127;SDS011;8168;49.036;7.690;2023-09-30T02:33:58;3.77;;;2.40;;
16127;SDS011;8168;49.036;7.690;2023-09-30T02:36:29;4.87;;;2.23;;
16127;SDS011;8168;49.036;7.690;2023-09-30T02:39:00;3.83;;;2.47;;
16127;SDS011;8168;49.036;7.690;2023-09-30T02:41:30;2.73;;;2.20;;
16127;SDS011;8168;49.036;7.690;2023-09-30T02:44:01;3.40;;;2.20;;
16127;SDS011;8168;49.036;7.690;2023-09-30T02:46:32;4.17;;;2.27;;
16127;SDS011;8168;49.036;7.690;2023-09-30T02:49:02;3.60;;;2.30;;
16127;SDS011;8168;49.036;7.690;2023-09-30T02:51:33;2.67;;;2.23;;
16127;SDS011;8168;49.036;7.690;2023-09-30T02:54:04;3.80;;;2.47;;
16127;SDS011;8168;49.036;7.690;2023-09-30T02:56:35;5.17;;;2.40;;
16127;SDS011;8168;49.036;7.690;2023-09-30T02:59:06;2.30;;;2.10;;
16127;SDS011;8168;49.036;7.690;2023-09-30T03:01:37;2.73;;;2.37;;
16127;SDS011;8168;49.036;7.690;2023-09-30T03:04:08;3.90;;;2.80;;
16127;SDS011;8168;49.036;7.690;2023-09-30T03:06:39;2.83;;;2.40;;
16127;SDS011;8168;49.036;7.690;2023-09-30T03:09:10;3.63;;;2.40;;
16127;SDS011;8168;49.036;7.690;2023-09-30T03:11:45;3.63;;;2.50;;
16127;SDS011;8168;49.036;7.690;2023-09-30T03:14:16;3.57;;;2.53;;
16127;SDS011;8168;49.036;7.690;2023-09-30T03:16:47;3.23;;;2.47;;
16127;SDS011;8168;49.036;7.690;2023-09-30T03:19:17;3.93;;;2.50;;
16127;SDS011;8168;49.036;7.690;2023-09-30T03:21:48;3.20;;;2.40;;
16127;SDS011;8168;49.036;7.690;2023-09-30T03:24:18;2.53;;;2.23;;
16127;SDS011;8168;49.036;7.690;2023-09-30T03:26:49;4.17;;;2.20;;
16127;SDS011;8168;49.036;7.690;2023-09-30T03:29:20;2.47;;;2.00;;
16127;SDS011;8168;49.036;7.690;2023-09-30T03:31:50;4.13;;;2.63;;
16127;SDS011;8168;49.036;7.690;2023-09-30T03:34:22;3.90;;;2.33;;
16127;SDS011;8168;49.036;7.690;2023-09-30T03:36:52;4.73;;;2.77;;
16127;SDS011;8168;49.036;7.690;2023-09-30T03:39:25;3.30;;;2.50;;
16127;SDS011;8168;49.036;7.690;2023-09-30T03:41:57;4.20;;;2.23;;
16127;SDS011;8168;49.036;7.690;2023-09-30T03:44:29;2.53;;;2.13;;
16127;SDS011;8168;49.036;7.690;2023-09-30T03:46:59;4.00;;;2.50;;
16127;SDS011;8168;49.036;7.690;2023-09-30T03:49:30;6.00;;;2.53;;
16127;SDS011;8168;49.036;7.690;2023-09-30T03:52:01;6.67;;;2.40;;
16127;SDS011;8168;49.036;7.690;2023-09-30T03:54:32;4.37;;;2.77;;
16127;SDS011;8168;49.036;7.690;2023-09-30T03:57:03;3.07;;;2.30;;
16127;SDS011;8168;49.036;7.690;2023-09-30T03:59:33;3.80;;;2.20;;
16127;SDS011;8168;49.036;7.690;2023-09-30T04:02:04;2.83;;;2.27;;
16127;SDS011;8168;49.036;7.690;2023-09-30T04:04:36;4.50;;;2.43;;
16127;SDS011;8168;49.036;7.690;2023-09-30T04:07:07;3.10;;;2.60;;
16127;SDS011;8168;49.036;7.690;2023-09-30T04:09:40;5.23;;;2.50;;
16127;SDS011;8168;49.036;7.690;2023-09-30T04:12:10;2.87;;;2.57;;
16127;SDS011;8168;49.036;7.690;2023-09-30T04:14:41;3.60;;;2.07;;
16127;SDS011;8168;49.036;7.690;2023-09-30T04:17:12;3.83;;;2.47;;
16127;SDS011;8168;49.036;7.690;2023-09-30T04:19:42;3.13;;;2.50;;
16127;SDS011;8168;49.036;7.690;2023-09-30T04:22:13;2.23;;;2.03;;
16127;SDS011;8168;49.036;7.690;2023-09-30T04:24:44;5.37;;;3.30;;
16127;SDS011;8168;49.036;7.690;2023-09-30T04:27:15;3.67;;;2.20;;
16127;SDS011;8168;49.036;7.690;2023-09-30T04:29:46;2.20;;;2.00;;
16127;SDS011;8168;49.036;7.690;2023-09-30T04:32:17;2.13;;;1.93;;
16127;SDS011;8168;49.036;7.690;2023-09-30T04:34:47;3.43;;;2.47;;
16127;SDS011;8168;49.036;7.690;2023-09-30T04:37:18;3.00;;;2.30;;
16127;SDS011;8168;49.036;7.690;2023-09-30T04:39:49;4.40;;;2.53;;
16127;SDS011;8168;49.036;7.690;2023-09-30T04:42:19;2.20;;;2.00;;
16127;SDS011;8168;49.036;7.690;2023-09-30T04:44:50;2.13;;;1.93;;
16127;SDS011;8168;49.036;7.690;2023-09-30T04:47:20;2.27;;;2.07;;
16127;SDS011;8168;49.036;7.690;2023-09-30T04:49:51;3.93;;;2.40;;
16127;SDS011;8168;49.036;7.690;2023-09-30T04:52:22;3.60;;;2.30;;
16127;SDS011;8168;49.036;7.690;2023-09-30T04:54:57;5.37;;;2.57;;
16127;SDS011;8168;49.036;7.690;2023-09-30T04:57:27;3.03;;;2.47;;
16127;SDS011;8168;49.036;7.690;2023-09-30T04:59:58;3.93;;;2.30;;
16127;SDS011;8168;49.036;7.690;2023-09-30T05:02:28;4.77;;;2.00;;
16127;SDS011;8168;49.036;7.690;2023-09-30T05:04:59;4.33;;;2.67;;
16127;SDS011;8168;49.036;7.690;2023-09-30T05:07:30;3.70;;;2.30;;
16127;SDS011;8168;49.036;7.690;2023-09-30T05:10:00;2.70;;;2.20;;
16127;SDS011;8168;49.036;7.690;2023-09-30T05:12:35;3.80;;;2.40;;
16127;SDS011;8168;49.036;7.690;2023-09-30T05:15:05;4.30;;;2.60;;
16127;SDS011;8168;49.036;7.690;2023-09-30T05:17:36;4.77;;;2.70;;
16127;SDS011;8168;49.036;7.690;2023-09-30T05:20:07;3.13;;;2.40;;
16127;SDS011;8168;49.036;7.690;2023-09-30T05:22:38;5.23;;;2.20;;
16127;SDS011;8168;49.036;7.690;2023-09-30T05:25:16;2.73;;;2.30;;
16127;SDS011;8168;49.036;7.690;2023-09-30T05:27:46;3.17;;;2.60;;
16127;SDS011;8168;49.036;7.690;2023-09-30T05:30:18;3.10;;;2.80;;
16127;SDS011;8168;49.036;7.690;2023-09-30T05:32:50;2.43;;;1.97;;
16127;SDS011;8168;49.036;7.690;2023-09-30T05:35:22;3.23;;;2.07;;
16127;SDS011;8168;49.036;7.690;2023-09-30T05:37:54;3.20;;;2.17;;
16127;SDS011;8168;49.036;7.690;2023-09-30T05:40:24;2.43;;;2.00;;
16127;SDS011;8168;49.036;7.690;2023-09-30T05:42:56;2.67;;;2.20;;
16127;SDS011;8168;49.036;7.690;2023-09-30T05:45:30;2.50;;;2.00;;
16127;SDS011;8168;49.036;7.690;2023-09-30T05:48:04;2.30;;;1.90;;
16127;SDS011;8168;49.036;7.690;2023-09-30T05:50:37;2.30;;;2.10;;
16127;SDS011;8168;49.036;7.690;2023-09-30T05:53:08;5.00;;;2.43;;
16127;SDS011;8168;49.036;7.690;2023-09-30T05:55:40;4.03;;;2.53;;
16127;SDS011;8168;49.036;7.690;2023-09-30T05:58:13;2.17;;;1.97;;
16127;SDS011;8168;49.036;7.690;2023-09-30T06:00:46;3.27;;;2.37;;
16127;SDS011;8168;49.036;7.690;2023-09-30T06:03:17;2.63;;;2.20;;
16127;SDS011;8168;49.036;7.690;2023-09-30T06:05:47;4.93;;;2.50;;
16127;SDS011;8168;49.036;7.690;2023-09-30T06:08:18;3.67;;;2.40;;
16127;SDS011;8168;49.036;7.690;2023-09-30T06:10:49;7.20;;;2.10;;
16127;SDS011;8168;49.036;7.690;2023-09-30T06:13:19;2.07;;;1.90;;
16127;SDS011;8168;49.036;7.690;2023-09-30T06:15:51;2.53;;;1.70;;
16127;SDS011;8168;49.036;7.690;2023-09-30T06:18:21;2.97;;;2.20;;
16127;SDS011;8168;49.036;7.690;2023-09-30T06:20:52;1.97;;;1.87;;
16127;SDS011;8168;49.036;7.690;2023-09-30T06:23:23;3.43;;;1.90;;
16127;SDS011;8168;49.036;7.690;2023-09-30T06:25:53;3.97;;;2.00;;
16127;SDS011;8168;49.036;7.690;2023-09-30T06:28:24;3.50;;;1.90;;
16127;SDS011;8168;49.036;7.690;2023-09-30T06:30:56;2.17;;;1.97;;
16127;SDS011;8168;49.036;7.690;2023-09-30T06:33:27;2.23;;;1.73;;
16127;SDS011;8168;49.036;7.690;2023-09-30T06:35:59;6.93;;;3.10;;
16127;SDS011;8168;49.036;7.690;2023-09-30T06:38:32;4.00;;;3.03;;
16127;SDS011;8168;49.036;7.690;2023-09-30T06:41:02;5.67;;;3.40;;
16127;SDS011;8168;49.036;7.690;2023-09-30T06:43:34;4.33;;;3.17;;
16127;SDS011;8168;49.036;7.690;2023-09-30T06:46:06;6.20;;;3.70;;
16127;SDS011;8168;49.036;7.690;2023-09-30T06:48:39;7.33;;;3.93;;
16127;SDS011;8168;49.036;7.690;2023-09-30T06:51:13;8.80;;;3.43;;
16127;SDS011;8168;49.036;7.690;2023-09-30T06:53:47;7.50;;;3.30;;
16127;SDS011;8168;49.036;7.690;2023-09-30T06:56:18;7.20;;;4.00;;
16127;SDS011;8168;49.036;7.690;2023-09-30T06:58:48;5.03;;;3.77;;
16127;SDS011;8168;49.036;7.690;2023-09-30T07:01:19;5.10;;;3.47;;
16127;SDS011;8168;49.036;7.690;2023-09-30T07:03:50;5.93;;;3.67;;
16127;SDS011;8168;49.036;7.690;2023-09-30T07:06:22;11.00;;;3.80;;
16127;SDS011;8168;49.036;7.690;2023-09-30T07:08:53;4.53;;;3.10;;
16127;SDS011;8168;49.036;7.690;2023-09-30T07:11:27;4.80;;;3.37;;
16127;SDS011;8168;49.036;7.690;2023-09-30T07:13:59;7.10;;;3.50;;
16127;SDS011;8168;49.036;7.690;2023-09-30T07:16:30;4.83;;;3.10;;
16127;SDS011;8168;49.036;7.690;2023-09-30T07:19:01;10.50;;;3.63;;
16127;SDS011;8168;49.036;7.690;2023-09-30T07:21:32;4.87;;;3.33;;
16127;SDS011;8168;49.036;7.690;2023-09-30T07:24:03;5.07;;;3.57;;
16127;SDS011;8168;49.036;7.690;2023-09-30T07:26:34;5.13;;;3.23;;
16127;SDS011;8168;49.036;7.690;2023-09-30T07:29:05;3.70;;;3.23;;
16127;SDS011;8168;49.036;7.690;2023-09-30T07:31:36;5.93;;;3.47;;
16127;SDS011;8168;49.036;7.690;2023-09-30T07:34:07;3.83;;;2.83;;
16127;SDS011;8168;49.036;7.690;2023-09-30T07:36:38;4.57;;;3.03;;
16127;SDS011;8168;49.036;7.690;2023-09-30T07:39:09;4.83;;;3.20;;
16127;SDS011;8168;49.036;7.690;2023-09-30T07:41:40;5.40;;;3.30;;
16127;SDS011;8168;49.036;7.690;2023-09-30T07:44:10;5.67;;;3.60;;
16127;SDS011;8168;49.036;7.690;2023-09-30T07:46:41;7.10;;;3.60;;
16127;SDS011;8168;49.036;7.690;2023-09-30T07:49:13;12.43;;;3.30;;
16127;SDS011;8168;49.036;7.690;2023-09-30T07:51:43;6.57;;;3.63;;
16127;SDS011;8168;49.036;7.690;2023-09-30T07:54:16;6.17;;;3.77;;
16127;SDS011;8168;49.036;7.690;2023-09-30T07:56:47;4.57;;;3.70;;
16127;SDS011;8168;49.036;7.690;2023-09-30T07:59:19;5.17;;;3.57;;
16127;SDS011;8168;49.036;7.690;2023-09-30T08:01:49;8.23;;;4.13;;
16127;SDS011;8168;49.036;7.690;2023-09-30T08:04:20;4.90;;;4.03;;
16127;SDS011;8168;49.036;7.690;2023-09-30T08:06:51;6.67;;;3.83;;
16127;SDS011;8168;49.036;7.690;2023-09-30T08:09:21;6.13;;;3.80;;
16127;SDS011;8168;49.036;7.690;2023-09-30T08:11:54;5.87;;;3.33;;
16127;SDS011;8168;49.036;7.690;2023-09-30T08:14:24;5.33;;;3.40;;
16127;SDS011;8168;49.036;7.690;2023-09-30T08:16:55;5.40;;;3.70;;
16127;SDS011;8168;49.036;7.690;2023-09-30T08:19:26;4.03;;;3.57;;
16127;SDS011;8168;49.036;7.690;2023-09-30T08:21:56;4.50;;;3.60;;
16127;SDS011;8168;49.036;7.690;2023-09-30T08:24:28;6.43;;;3.90;;
16127;SDS011;8168;49.036;7.690;2023-09-30T08:26:59;7.30;;;4.10;;
16127;SDS011;8168;49.036;7.690;2023-09-30T08:29:29;5.07;;;3.47;;
16127;SDS011;8168;49.036;7.690;2023-09-30T08:32:00;4.60;;;3.57;;
16127;SDS011;8168;49.036;7.690;2023-09-30T08:34:31;7.07;;;3.60;;
16127;SDS011;8168;49.036;7.690;2023-09-30T08:37:01;5.20;;;3.27;;
16127;SDS011;8168;49.036;7.690;2023-09-30T08:39:32;5.77;;;3.83;;
16127;SDS011;8168;49.036;7.690;2023-09-30T08:42:02;6.03;;;3.27;;
16127;SDS011;8168;49.036;7.690;2023-09-30T08:44:38;4.33;;;3.07;;
16127;SDS011;8168;49.036;7.690;2023-09-30T08:47:09;5.43;;;3.13;;
16127;SDS011;8168;49.036;7.690;2023-09-30T08:49:41;4.80;;;3.30;;
16127;SDS011;8168;49.036;7.690;2023-09-30T08:52:14;4.67;;;2.97;;
16127;SDS011;8168;49.036;7.690;2023-09-30T08:54:44;3.63;;;3.00;;
16127;SDS011;8168;49.036;7.690;2023-09-30T08:57:15;4.20;;;2.87;;
16127;SDS011;8168;49.036;7.690;2023-09-30T08:59:49;5.63;;;2.90;;
16127;SDS011;8168;49.036;7.690;2023-09-30T09:02:20;4.83;;;3.30;;
16127;SDS011;8168;49.036;7.690;2023-09-30T09:04:51;3.90;;;2.97;;
16127;SDS011;8168;49.036;7.690;2023-09-30T09:07:22;4.17;;;2.87;;
16127;SDS011;8168;49.036;7.690;2023-09-30T09:10:07;4.87;;;2.97;;
16127;SDS011;8168;49.036;7.690;2023-09-30T09:12:39;4.60;;;2.47;;
16127;SDS011;8168;49.036;7.690;2023-09-30T09:15:21;5.80;;;2.80;;
16127;SDS011;8168;49.036;7.690;2023-09-30T09:17:54;6.47;;;3.00;;
16127;SDS011;8168;49.036;7.690;2023-09-30T09:20:25;5.57;;;2.80;;
16127;SDS011;8168;49.036;7.690;2023-09-30T09:22:56;5.40;;;3.10;;
16127;SDS011;8168;49.036;7.690;2023-09-30T09:25:28;4.87;;;2.90;;
16127;SDS011;8168;49.036;7.690;2023-09-30T09:27:58;4.57;;;2.63;;
16127;SDS011;8168;49.036;7.690;2023-09-30T09:30:29;4.63;;;3.03;;
16127;SDS011;8168;49.036;7.690;2023-09-30T09:33:00;3.07;;;2.57;;
16127;SDS011;8168;49.036;7.690;2023-09-30T09:35:33;3.90;;;2.83;;
16127;SDS011;8168;49.036;7.690;2023-09-30T09:38:05;3.93;;;2.53;;
16127;SDS011;8168;49.036;7.690;2023-09-30T09:40:37;3.67;;;2.70;;
16127;SDS011;8168;49.036;7.690;2023-09-30T09:43:10;4.73;;;2.83;;
16127;SDS011;8168;49.036;7.690;2023-09-30T09:45:41;5.03;;;2.77;;
16127;SDS011;8168;49.036;7.690;2023-09-30T09:48:13;5.90;;;2.73;;
16127;SDS011;8168;49.036;7.690;2023-09-30T09:50:45;2.87;;;2.50;;
16127;SDS011;8168;49.036;7.690;2023-09-30T09:53:16;4.80;;;2.93;;
16127;SDS011;8168;49.036;7.690;2023-09-30T09:55:50;5.77;;;2.73;;
16127;SDS011;8168;49.036;7.690;2023-09-30T09:58:21;4.80;;;2.73;;
16127;SDS011;8168;49.036;7.690;2023-09-30T10:00:54;4.80;;;2.63;;
16127;SDS011;8168;49.036;7.690;2023-09-30T10:03:26;6.20;;;2.43;;
16127;SDS011;8168;49.036;7.690;2023-09-30T10:05:58;3.80;;;2.57;;
16127;SDS011;8168;49.036;7.690;2023-09-30T10:08:40;5.83;;;2.60;;
16127;SDS011;8168;49.036;7.690;2023-09-30T10:11:18;3.60;;;2.47;;
16127;SDS011;8168;49.036;7.690;2023-09-30T10:13:52;6.13;;;2.80;;
16127;SDS011;8168;49.036;7.690;2023-09-30T10:19:10;3.20;;;2.43;;
16127;SDS011;8168;49.036;7.690;2023-09-30T10:24:52;4.63;;;3.10;;
16127;SDS011;8168;49.036;7.690;2023-09-30T10:27:27;3.10;;;2.70;;
16127;SDS011;8168;49.036;7.690;2023-09-30T10:40:52;4.37;;;2.57;;
16127;SDS011;8168;49.036;7.690;2023-09-30T10:43:32;5.30;;;2.80;;
16127;SDS011;8168;49.036;7.690;2023-09-30T10:49:10;4.20;;;2.60;;
16127;SDS011;8168;49.036;7.690;2023-09-30T10:51:47;3.07;;;2.23;;
16127;SDS011;8168;49.036;7.690;2023-09-30T10:54:22;5.43;;;2.90;;
16127;SDS011;8168;49.036;7.690;2023-09-30T10:56:58;5.27;;;2.40;;
16127;SDS011;8168;49.036;7.690;2023-09-30T10:59:29;3.37;;;2.27;;
16127;SDS011;8168;49.036;7.690;2023-09-30T11:02:00;3.83;;;2.60;;
16127;SDS011;8168;49.036;7.690;2023-09-30T11:04:44;4.50;;;2.67;;
16127;SDS011;8168;49.036;7.690;2023-09-30T11:07:18;4.60;;;2.50;;
16127;SDS011;8168;49.036;7.690;2023-09-30T11:09:53;4.77;;;2.43;;
16127;SDS011;8168;49.036;7.690;2023-09-30T11:12:24;4.73;;;2.70;;
16127;SDS011;8168;49.036;7.690;2023-09-30T11:14:59;3.33;;;2.77;;
16127;SDS011;8168;49.036;7.690;2023-09-30T11:17:31;5.70;;;3.00;;
16127;SDS011;8168;49.036;7.690;2023-09-30T11:20:03;5.20;;;3.10;;
16127;SDS011;8168;49.036;7.690;2023-09-30T11:22:36;4.20;;;2.53;;
16127;SDS011;8168;49.036;7.690;2023-09-30T11:25:14;4.70;;;3.20;;
16127;SDS011;8168;49.036;7.690;2023-09-30T11:27:46;6.17;;;3.03;;
16127;SDS011;8168;49.036;7.690;2023-09-30T11:30:17;7.03;;;3.10;;
16127;SDS011;8168;49.036;7.690;2023-09-30T11:32:57;6.53;;;3.20;;
16127;SDS011;8168;49.036;7.690;2023-09-30T11:35:29;5.50;;;3.60;;
16127;SDS011;8168;49.036;7.690;2023-09-30T11:37:59;6.23;;;3.27;;
16127;SDS011;8168;49.036;7.690;2023-09-30T11:40:30;6.87;;;2.90;;
16127;SDS011;8168;49.036;7.690;2023-09-30T11:43:08;5.43;;;3.03;;
16127;SDS011;8168;49.036;7.690;2023-09-30T11:45:41;6.33;;;3.00;;
16127;SDS011;8168;49.036;7.690;2023-09-30T11:48:17;5.63;;;2.97;;
16127;SDS011;8168;49.036;7.690;2023-09-30T11:50:49;6.80;;;2.90;;
16127;SDS011;8168;49.036;7.690;2023-09-30T11:53:20;5.37;;;2.80;;
16127;SDS011;8168;49.036;7.690;2023-09-30T11:55:50;5.77;;;3.17;;
16127;SDS011;8168;49.036;7.690;2023-09-30T11:58:28;4.77;;;3.10;;
16127;SDS011;8168;49.036;7.690;2023-09-30T12:00:59;6.00;;;2.87;;
16127;SDS011;8168;49.036;7.690;2023-09-30T12:03:30;5.00;;;3.13;;
16127;SDS011;8168;49.036;7.690;2023-09-30T12:06:00;3.90;;;2.60;;
16127;SDS011;8168;49.036;7.690;2023-09-30T12:08:31;4.23;;;2.57;;
16127;SDS011;8168;49.036;7.690;2023-09-30T12:11:02;4.80;;;2.63;;
16127;SDS011;8168;49.036;7.690;2023-09-30T12:13:33;5.10;;;3.10;;
16127;SDS011;8168;49.036;7.690;2023-09-30T12:16:04;6.23;;;3.07;;
16127;SDS011;8168;49.036;7.690;2023-09-30T12:18:35;5.20;;;2.70;;
16127;SDS011;8168;49.036;7.690;2023-09-30T12:21:05;5.60;;;2.63;;
16127;SDS011;8168;49.036;7.690;2023-09-30T12:23:40;6.27;;;2.63;;
16127;SDS011;8168;49.036;7.690;2023-09-30T12:26:14;4.70;;;2.80;;
16127;SDS011;8168;49.036;7.690;2023-09-30T12:28:47;5.17;;;2.43;;
16127;SDS011;8168;49.036;7.690;2023-09-30T12:31:18;4.97;;;2.50;;
16127;SDS011;8168;49.036;7.690;2023-09-30T12:33:50;4.93;;;2.70;;
16127;SDS011;8168;49.036;7.690;2023-09-30T12:36:22;3.77;;;2.60;;
16127;SDS011;8168;49.036;7.690;2023-09-30T12:38:52;4.57;;;2.43;;
16127;SDS011;8168;49.036;7.690;2023-09-30T12:41:23;5.10;;;2.93;;
16127;SDS011;8168;49.036;7.690;2023-09-30T12:43:54;5.90;;;2.93;;
16127;SDS011;8168;49.036;7.690;2023-09-30T12:46:24;4.77;;;2.53;;
16127;SDS011;8168;49.036;7.690;2023-09-30T12:48:55;3.43;;;2.43;;
16127;SDS011;8168;49.036;7.690;2023-09-30T12:51:27;4.20;;;2.80;;
16127;SDS011;8168;49.036;7.690;2023-09-30T12:53:58;5.10;;;2.53;;
16127;SDS011;8168;49.036;7.690;2023-09-30T12:56:30;5.43;;;3.27;;
16127;SDS011;8168;49.036;7.690;2023-09-30T12:59:00;5.40;;;3.23;;
16127;SDS011;8168;49.036;7.690;2023-09-30T13:01:32;5.53;;;2.73;;
16127;SDS011;8168;49.036;7.690;2023-09-30T13:04:04;3.73;;;2.67;;
16127;SDS011;8168;49.036;7.690;2023-09-30T13:06:38;5.70;;;3.03;;
16127;SDS011;8168;49.036;7.690;2023-09-30T13:09:08;5.40;;;3.03;;
16127;SDS011;8168;49.036;7.690;2023-09-30T13:11:39;7.67;;;3.17;;
16127;SDS011;8168;49.036;7.690;2023-09-30T13:14:09;4.30;;;3.03;;
16127;SDS011;8168;49.036;7.690;2023-09-30T13:16:41;6.53;;;3.87;;
16127;SDS011;8168;49.036;7.690;2023-09-30T13:19:11;5.10;;;3.53;;
16127;SDS011;8168;49.036;7.690;2023-09-30T13:21:42;6.40;;;3.30;;
16127;SDS011;8168;49.036;7.690;2023-09-30T13:24:13;5.03;;;3.07;;
16127;SDS011;8168;49.036;7.690;2023-09-30T13:26:44;5.10;;;2.80;;
16127;SDS011;8168;49.036;7.690;2023-09-30T13:29:15;4.43;;;3.03;;
16127;SDS011;8168;49.036;7.690;2023-09-30T13:31:46;5.30;;;2.90;;
16127;SDS011;8168;49.036;7.690;2023-09-30T13:34:17;5.50;;;2.70;;
16127;SDS011;8168;49.036;7.690;2023-09-30T13:36:48;3.60;;;2.60;;
16127;SDS011;8168;49.036;7.690;2023-09-30T13:39:18;4.27;;;3.13;;
16127;SDS011;8168;49.036;7.690;2023-09-30T13:41:49;5.57;;;2.90;;
16127;SDS011;8168;49.036;7.690;2023-09-30T13:44:19;3.77;;;2.53;;
16127;SDS011;8168;49.036;7.690;2023-09-30T13:46:50;3.57;;;2.50;;
16127;SDS011;8168;49.036;7.690;2023-09-30T13:49:21;4.80;;;2.80;;
16127;SDS011;8168;49.036;7.690;2023-09-30T13:51:51;4.10;;;2.87;;
16127;SDS011;8168;49.036;7.690;2023-09-30T13:54:22;6.13;;;2.47;;
16127;SDS011;8168;49.036;7.690;2023-09-30T13:56:53;4.97;;;2.80;;
16127;SDS011;8168;49.036;7.690;2023-09-30T13:59:24;3.67;;;2.47;;
16127;SDS011;8168;49.036;7.690;2023-09-30T14:01:55;4.83;;;2.90;;
16127;SDS011;8168;49.036;7.690;2023-09-30T14:04:27;5.40;;;2.92;;
16127;SDS011;8168;49.036;7.690;2023-09-30T14:06:59;5.67;;;2.87;;
16127;SDS011;8168;49.036;7.690;2023-09-30T14:09:33;5.88;;;2.85;;
16127;SDS011;8168;49.036;7.690;2023-09-30T14:12:03;5.33;;;2.83;;
16127;SDS011;8168;49.036;7.690;2023-09-30T14:14:34;5.43;;;3.17;;
16127;SDS011;8168;49.036;7.690;2023-09-30T14:17:05;4.50;;;2.58;;
16127;SDS011;8168;49.036;7.690;2023-09-30T14:19:40;6.05;;;3.10;;
16127;SDS011;8168;49.036;7.690;2023-09-30T14:22:11;4.63;;;2.85;;
16127;SDS011;8168;49.036;7.690;2023-09-30T14:24:42;4.18;;;2.63;;
16127;SDS011;8168;49.036;7.690;2023-09-30T14:27:12;6.05;;;3.35;;
16127;SDS011;8168;49.036;7.690;2023-09-30T14:29:45;4.80;;;2.78;;
16127;SDS011;8168;49.036;7.690;2023-09-30T14:32:16;3.95;;;2.75;;
16127;SDS011;8168;49.036;7.690;2023-09-30T14:34:46;5.43;;;2.85;;
16127;SDS011;8168;49.036;7.690;2023-09-30T14:37:17;4.03;;;2.63;;
16127;SDS011;8168;49.036;7.690;2023-09-30T14:39:47;4.75;;;3.28;;
16127;SDS011;8168;49.036;7.690;2023-09-30T14:42:18;5.78;;;2.92;;
16127;SDS011;8168;49.036;7.690;2023-09-30T14:44:49;5.63;;;2.97;;
16127;SDS011;8168;49.036;7.690;2023-09-30T14:47:19;4.45;;;2.70;;
16127;SDS011;8168;49.036;7.690;2023-09-30T14:49:50;5.13;;;3.00;;
16127;SDS011;8168;49.036;7.690;2023-09-30T14:52:21;5.60;;;2.92;;
16127;SDS011;8168;49.036;7.690;2023-09-30T14:54:51;6.07;;;3.20;;
16127;SDS011;8168;49.036;7.690;2023-09-30T14:57:22;6.60;;;3.50;;
16127;SDS011;8168;49.036;7.690;2023-09-30T14:59:53;4.85;;;2.88;;
16127;SDS011;8168;49.036;7.690;2023-09-30T15:02:23;7.93;;;3.40;;
16127;SDS011;8168;49.036;7.690;2023-09-30T15:04:56;4.43;;;2.67;;
16127;SDS011;8168;49.036;7.690;2023-09-30T15:07:26;5.55;;;3.08;;
16127;SDS011;8168;49.036;7.690;2023-09-30T15:09:57;5.27;;;3.20;;
16127;SDS011;8168;49.036;7.690;2023-09-30T15:12:28;4.18;;;2.90;;
16127;SDS011;8168;49.036;7.690;2023-09-30T15:14:58;4.85;;;3.00;;
16127;SDS011;8168;49.036;7.690;2023-09-30T15:17:29;6.55;;;3.10;;
16127;SDS011;8168;49.036;7.690;2023-09-30T15:20:00;5.07;;;2.95;;
16127;SDS011;8168;49.036;7.690;2023-09-30T15:22:31;4.60;;;3.00;;
16127;SDS011;8168;49.036;7.690;2023-09-30T15:25:02;7.07;;;3.67;;
16127;SDS011;8168;49.036;7.690;2023-09-30T15:27:34;4.38;;;2.67;;
16127;SDS011;8168;49.036;7.690;2023-09-30T15:30:06;4.97;;;2.85;;
16127;SDS011;8168;49.036;7.690;2023-09-30T15:32:38;5.30;;;2.97;;
16127;SDS011;8168;49.036;7.690;2023-09-30T15:35:12;5.80;;;3.58;;
16127;SDS011;8168;49.036;7.690;2023-09-30T15:37:43;5.00;;;3.03;;
16127;SDS011;8168;49.036;7.690;2023-09-30T15:40:14;4.53;;;2.90;;
16127;SDS011;8168;49.036;7.690;2023-09-30T15:42:47;5.75;;;3.67;;
16127;SDS011;8168;49.036;7.690;2023-09-30T15:45:17;3.83;;;2.57;;